Time;durP1;ratioP1;P1;durP2;ratioP2;P2;SDS_P1;SDS_P2;PMS_P1;PMS_P2;Temp;Humidity;BMP_temperature;BMP_pressure;BME280_temperature;BME280_humidity;BME280_pressure;Samples;Min_cycle;Max_cycle;Signal;HPM_P1;HPM_P2
2023/07/29 00:01:41;;;;;;;9.75;6.28;;;18.60;90.20;;;;;;5053017;28;20041;-78
2023/07/29 00:04:08;;;;;;;12.15;6.85;;;18.60;90.10;;;;;;5052552;28;20086;-78
2023/07/29 00:06:35;;;;;;;9.50;7.15;;;18.60;90.20;;;;;;5052624;28;20048;-78
2023/07/29 00:09:01;;;;;;;9.38;6.28;;;18.50;90.50;;;;;;5052476;28;20040;-78
2023/07/29 00:11:26;;;;;;;10.38;6.15;;;18.60;90.30;;;;;;5052506;28;20044;-78
2023/07/29 00:13:53;;;;;;;12.68;7.30;;;18.50;90.40;;;;;;5052565;28;20040;-78
2023/07/29 00:16:21;;;;;;;12.95;7.03;;;18.50;90.80;;;;;;5052647;28;20424;-78
2023/07/29 00:18:48;;;;;;;9.77;6.68;;;18.50;90.80;;;;;;5035039;28;20517;-78
2023/07/29 00:21:13;;;;;;;10.50;7.13;;;18.50;90.70;;;;;;5052285;28;20125;-78
2023/07/29 00:23:39;;;;;;;11.38;7.05;;;18.50;90.80;;;;;;5052567;28;20091;-78
2023/07/29 00:26:05;;;;;;;11.73;7.35;;;18.50;91.00;;;;;;5052182;28;20045;-78
2023/07/29 00:28:31;;;;;;;10.32;6.60;;;18.50;90.80;;;;;;5053402;28;20048;-78
2023/07/29 00:30:57;;;;;;;8.13;6.70;;;18.40;90.80;;;;;;5035887;28;20408;-78
2023/07/29 00:33:22;;;;;;;14.25;6.75;;;18.50;90.80;;;;;;5035795;28;20362;-78
2023/07/29 00:35:48;;;;;;;8.23;6.20;;;18.50;90.80;;;;;;5051969;28;20447;-78
2023/07/29 00:38:14;;;;;;;10.07;6.45;;;18.50;90.70;;;;;;5051972;28;20048;-78
2023/07/29 00:40:39;;;;;;;10.50;6.72;;;18.50;90.90;;;;;;5051944;28;20379;-78
2023/07/29 00:43:05;;;;;;;10.60;5.80;;;18.50;91.00;;;;;;5035377;28;20045;-78
2023/07/29 00:45:32;;;;;;;7.65;5.43;;;18.50;91.20;;;;;;5052096;28;20083;-78
2023/07/29 00:47:59;;;;;;;11.25;5.88;;;18.50;91.30;;;;;;5051892;28;20098;-78
2023/07/29 00:50:27;;;;;;;9.32;5.70;;;18.50;91.10;;;;;;5052109;28;20128;-78
2023/07/29 00:52:54;;;;;;;10.82;7.20;;;18.50;91.30;;;;;;5051760;28;20386;-78
2023/07/29 00:55:20;;;;;;;8.90;6.47;;;18.40;91.70;;;;;;5051617;28;20501;-78
2023/07/29 00:57:48;;;;;;;10.02;6.57;;;18.40;91.70;;;;;;5051754;28;20083;-78
2023/07/29 01:00:15;;;;;;;8.77;6.28;;;18.40;91.50;;;;;;5035215;28;20098;-77
2023/07/29 01:02:42;;;;;;;9.20;6.38;;;18.40;91.40;;;;;;5052077;28;20037;-78
2023/07/29 01:05:08;;;;;;;10.40;5.75;;;18.40;91.70;;;;;;5051619;28;20045;-77
2023/07/29 01:07:44;;;;;;;8.57;5.25;;;18.30;92.20;;;;;;5018880;28;20043;-78
2023/07/29 01:10:15;;;;;;;8.52;5.97;;;18.30;92.30;;;;;;5051635;28;20047;-78
2023/07/29 01:12:49;;;;;;;9.07;6.38;;;18.30;92.40;;;;;;5051660;28;20131;-78
2023/07/29 01:15:43;;;;;;;8.88;6.80;;;18.30;92.50;;;;;;5034922;28;20044;-78
2023/07/29 01:18:14;;;;;;;9.82;6.10;;;18.30;92.10;;;;;;5051632;28;20395;-78
2023/07/29 01:20:42;;;;;;;10.00;6.55;;;18.30;92.40;;;;;;5051794;28;20191;-78
2023/07/29 01:23:08;;;;;;;11.13;6.57;;;18.20;92.40;;;;;;5051465;28;20481;-78
2023/07/29 01:25:33;;;;;;;10.10;6.90;;;18.20;92.70;;;;;;5051406;28;20052;-78
2023/07/29 01:27:59;;;;;;;8.07;6.60;;;18.20;92.40;;;;;;5034881;28;20044;-78
2023/07/29 01:30:31;;;;;;;8.82;6.95;;;18.30;92.30;;;;;;5039095;28;20052;-78
2023/07/29 01:33:14;;;;;;;10.05;6.43;;;18.30;92.60;;;;;;5055500;28;20049;-78
2023/07/29 01:35:46;;;;;;;9.98;7.03;;;18.30;92.70;;;;;;5055680;28;20142;-77
2023/07/29 01:38:19;;;;;;;9.80;6.60;;;18.20;92.80;;;;;;5055488;28;20131;-78
2023/07/29 01:40:45;;;;;;;13.82;7.07;;;18.20;92.70;;;;;;5038691;28;20520;-78
2023/07/29 01:43:12;;;;;;;8.98;7.10;;;18.20;92.80;;;;;;5055578;28;20056;-78
2023/07/29 01:45:39;;;;;;;13.02;7.65;;;18.20;92.60;;;;;;5055363;28;20044;-78
2023/07/29 01:48:05;;;;;;;9.32;7.15;;;18.20;92.90;;;;;;5038959;28;20385;-78
2023/07/29 01:50:34;;;;;;;7.80;6.55;;;18.20;92.60;;;;;;5055194;28;20508;-78
2023/07/29 01:53:00;;;;;;;8.05;6.50;;;18.20;92.30;;;;;;5055151;28;20413;-78
2023/07/29 01:55:26;;;;;;;10.82;7.20;;;18.20;92.60;;;;;;5055110;28;20055;-78
2023/07/29 01:57:52;;;;;;;8.48;5.93;;;18.20;92.20;;;;;;5055092;28;20135;-78
2023/07/29 02:00:21;;;;;;;17.08;7.40;;;18.20;92.20;;;;;;5021946;28;20516;-78
2023/07/29 02:02:47;;;;;;;10.07;6.07;;;18.10;92.40;;;;;;5055236;28;20454;-78
2023/07/29 02:05:12;;;;;;;10.68;6.50;;;18.10;92.60;;;;;;5054798;28;20079;-78
2023/07/29 02:07:38;;;;;;;11.93;6.75;;;18.10;92.50;;;;;;5054873;28;20041;-78
2023/07/29 02:10:04;;;;;;;10.02;7.00;;;18.10;92.70;;;;;;5038448;28;20072;-78
2023/07/29 02:12:30;;;;;;;12.02;6.35;;;18.10;92.90;;;;;;5038509;28;20120;-78
2023/07/29 02:14:55;;;;;;;14.88;5.90;;;18.00;93.30;;;;;;5054637;28;20524;-78
2023/07/29 02:17:21;;;;;;;9.02;5.30;;;18.00;92.80;;;;;;5038073;28;20052;-78
2023/07/29 02:19:47;;;;;;;9.40;6.05;;;18.00;93.20;;;;;;5039189;28;20040;-77
2023/07/29 02:22:17;;;;;;;10.85;6.03;;;18.00;92.90;;;;;;5055079;28;20036;-78
2023/07/29 02:24:43;;;;;;;10.15;5.88;;;18.00;92.90;;;;;;5054560;28;20041;-78
2023/07/29 02:27:09;;;;;;;9.90;5.53;;;18.00;93.30;;;;;;5054533;28;20063;-78
2023/07/29 02:29:35;;;;;;;9.60;4.95;;;18.00;93.20;;;;;;5054742;28;20061;-78
2023/07/29 02:32:00;;;;;;;11.10;6.25;;;17.90;93.10;;;;;;5005385;28;20044;-78
2023/07/29 02:34:26;;;;;;;8.32;5.30;;;17.90;93.50;;;;;;5021322;28;20049;-78
2023/07/29 02:36:52;;;;;;;9.18;5.07;;;17.90;93.30;;;;;;5037739;28;20051;-78
2023/07/29 02:39:17;;;;;;;11.15;5.07;;;17.90;93.30;;;;;;5054351;28;20043;-78
2023/07/29 02:41:43;;;;;;;8.75;4.90;;;17.90;93.30;;;;;;5053633;28;20037;-78
2023/07/29 02:44:09;;;;;;;9.43;5.45;;;17.80;93.20;;;;;;5021402;28;20106;-78
2023/07/29 02:46:35;;;;;;;13.43;5.63;;;17.80;93.20;;;;;;5054210;28;20045;-78
2023/07/29 02:49:02;;;;;;;11.63;5.20;;;17.80;93.10;;;;;;5054540;28;20040;-77
2023/07/29 02:51:28;;;;;;;9.90;4.75;;;17.70;93.00;;;;;;5037456;28;20037;-78
2023/07/29 02:53:54;;;;;;;11.32;5.47;;;17.70;93.00;;;;;;5053770;28;20131;-78
2023/07/29 02:56:19;;;;;;;10.02;4.57;;;17.70;92.90;;;;;;5053872;28;20087;-78
2023/07/29 02:58:45;;;;;;;9.00;5.15;;;17.60;92.90;;;;;;5037217;28;20083;-77
2023/07/29 03:01:11;;;;;;;9.82;5.28;;;17.60;92.80;;;;;;5037446;28;20037;-78
2023/07/29 03:03:37;;;;;;;9.18;4.63;;;17.60;92.80;;;;;;5037329;28;20041;-78
2023/07/29 03:06:08;;;;;;;7.95;4.40;;;17.50;92.80;;;;;;5053903;28;20120;-77
2023/07/29 03:08:34;;;;;;;15.55;5.82;;;17.50;92.90;;;;;;5053862;28;20051;-78
2023/07/29 03:11:07;;;;;;;11.60;4.78;;;17.50;93.00;;;;;;5053994;28;20040;-78
2023/07/29 03:13:32;;;;;;;10.32;4.55;;;17.50;92.90;;;;;;5053847;28;20049;-78
2023/07/29 03:16:15;;;;;;;9.57;4.75;;;17.40;92.90;;;;;;5053816;28;20052;-78
2023/07/29 03:18:42;;;;;;;9.50;3.80;;;17.40;93.10;;;;;;5053486;28;20119;-78
2023/07/29 03:21:08;;;;;;;9.85;4.22;;;17.30;92.80;;;;;;5053515;28;20052;-78
2023/07/29 03:23:35;;;;;;;8.32;5.20;;;17.30;92.80;;;;;;5037166;28;20049;-78
2023/07/29 03:26:04;;;;;;;7.70;4.32;;;17.30;92.90;;;;;;5053328;28;20482;-78
2023/07/29 03:28:32;;;;;;;9.05;4.88;;;17.30;92.70;;;;;;5053476;28;20037;-78
2023/07/29 03:30:58;;;;;;;8.18;4.50;;;17.30;92.70;;;;;;5053366;28;20123;-78
2023/07/29 03:33:25;;;;;;;10.73;4.57;;;17.20;92.70;;;;;;5053573;28;20051;-78
2023/07/29 03:35:51;;;;;;;12.95;4.40;;;17.20;92.80;;;;;;5036576;28;20040;-78
2023/07/29 03:38:17;;;;;;;15.27;5.93;;;17.20;92.80;;;;;;5053169;28;20370;-78
2023/07/29 03:40:43;;;;;;;9.32;4.43;;;17.20;92.80;;;;;;5036545;28;20048;-78
2023/07/29 03:43:09;;;;;;;7.88;4.95;;;17.20;92.90;;;;;;5053100;28;20045;-78
2023/07/29 03:45:36;;;;;;;11.25;4.63;;;17.20;92.90;;;;;;5053175;28;20440;-78
2023/07/29 03:48:02;;;;;;;10.65;4.95;;;17.20;92.90;;;;;;5036306;28;20040;-78
2023/07/29 03:50:29;;;;;;;8.60;4.55;;;17.10;92.80;;;;;;5052680;28;20421;-78
2023/07/29 03:52:55;;;;;;;6.25;3.80;;;17.10;92.90;;;;;;5051126;28;20099;-78
2023/07/29 03:55:21;;;;;;;7.05;3.90;;;17.00;93.00;;;;;;5052673;28;20049;-78
2023/07/29 03:57:47;;;;;;;7.60;3.58;;;17.00;93.20;;;;;;5052817;28;20045;-78
2023/07/29 04:00:13;;;;;;;8.63;4.00;;;17.00;93.20;;;;;;5020014;28;20068;-78
2023/07/29 04:02:38;;;;;;;9.52;4.25;;;17.00;93.10;;;;;;5036154;28;20041;-78
2023/07/29 04:05:08;;;;;;;7.00;3.40;;;17.00;93.10;;;;;;5052522;28;20036;-78
2023/07/29 04:07:37;;;;;;;6.78;3.63;;;17.00;93.20;;;;;;5019938;28;20040;-78
2023/07/29 04:10:04;;;;;;;7.30;3.90;;;17.00;93.20;;;;;;5052548;28;20045;-78
2023/07/29 04:12:30;;;;;;;10.88;3.67;;;17.00;93.30;;;;;;5052454;28;20132;-78
2023/07/29 04:15:02;;;;;;;8.55;4.03;;;17.00;93.30;;;;;;5111019;27;20978;-77
2023/07/29 04:17:28;;;;;;;9.88;4.07;;;16.90;93.60;;;;;;5092715;28;20061;-78
2023/07/29 04:19:54;;;;;;;7.60;3.92;;;16.90;93.60;;;;;;5092897;28;20071;-77
2023/07/29 04:22:20;;;;;;;6.63;3.78;;;16.90;93.60;;;;;;5110027;28;20123;-77
2023/07/29 04:24:46;;;;;;;7.28;4.28;;;16.90;93.60;;;;;;5075961;28;20126;-78
2023/07/29 04:27:12;;;;;;;9.82;3.97;;;16.90;93.50;;;;;;5109520;28;20079;-77
2023/07/29 04:29:38;;;;;;;10.13;4.03;;;16.90;93.50;;;;;;5109533;28;20086;-77
2023/07/29 04:32:04;;;;;;;8.93;3.40;;;17.00;93.30;;;;;;5109689;28;20077;-77
2023/07/29 04:34:31;;;;;;;5.28;3.38;;;17.00;93.40;;;;;;5092233;28;20483;-77
2023/07/29 04:36:57;;;;;;;7.65;3.67;;;17.00;93.20;;;;;;5092688;28;20067;-77
2023/07/29 04:39:23;;;;;;;5.78;2.97;;;17.00;93.30;;;;;;5109339;28;20475;-77
2023/07/29 04:41:48;;;;;;;8.13;3.42;;;17.00;93.40;;;;;;5092326;28;20032;-77
2023/07/29 04:44:14;;;;;;;7.18;3.35;;;17.00;93.50;;;;;;5092186;28;20044;-77
2023/07/29 04:46:40;;;;;;;8.43;3.25;;;17.00;93.70;;;;;;5092351;28;20043;-77
2023/07/29 04:49:05;;;;;;;6.28;3.50;;;17.00;93.60;;;;;;5075520;28;20046;-77
2023/07/29 04:51:34;;;;;;;7.07;3.80;;;17.00;93.60;;;;;;5076491;28;20071;-77
2023/07/29 04:53:59;;;;;;;11.40;3.58;;;17.00;93.80;;;;;;5076635;28;20079;-77
2023/07/29 04:56:25;;;;;;;6.10;3.55;;;17.00;93.70;;;;;;5093093;28;20491;-78
2023/07/29 04:58:52;;;;;;;4.75;2.88;;;17.10;93.60;;;;;;5112223;28;20032;-77
2023/07/29 05:01:17;;;;;;;9.07;3.78;;;17.10;93.60;;;;;;5113060;28;20042;-77
2023/07/29 05:03:43;;;;;;;8.25;4.43;;;17.20;93.50;;;;;;5128553;28;20028;-78
2023/07/29 05:06:09;;;;;;;10.88;4.03;;;17.20;93.70;;;;;;5132892;28;20034;-77
2023/07/29 05:08:36;;;;;;;9.75;4.18;;;17.20;93.70;;;;;;5115708;28;20328;-77
2023/07/29 05:11:02;;;;;;;9.25;3.58;;;17.20;93.70;;;;;;5132964;28;20044;-77
2023/07/29 05:13:28;;;;;;;9.05;3.85;;;17.20;93.80;;;;;;5115361;28;20066;-77
2023/07/29 05:15:54;;;;;;;9.18;4.10;;;17.20;93.70;;;;;;5132801;28;20067;-77
2023/07/29 05:18:20;;;;;;;9.90;3.55;;;17.30;93.60;;;;;;5133156;28;20028;-77
2023/07/29 05:20:47;;;;;;;9.35;3.60;;;17.30;93.20;;;;;;5133518;28;20067;-77
2023/07/29 05:23:12;;;;;;;10.27;3.92;;;17.30;93.40;;;;;;5115978;28;20040;-77
2023/07/29 05:25:38;;;;;;;10.80;4.38;;;17.30;93.30;;;;;;5107524;28;20039;-77
2023/07/29 05:28:04;;;;;;;10.20;4.20;;;17.30;93.70;;;;;;5102467;28;20043;-77
2023/07/29 05:30:37;;;;;;;13.02;4.47;;;17.30;93.70;;;;;;5102256;28;20047;-77
2023/07/29 05:33:08;;;;;;;9.33;3.87;;;17.40;93.70;;;;;;5102332;28;20108;-77
2023/07/29 05:35:34;;;;;;;9.48;4.53;;;17.40;93.40;;;;;;5097610;28;20762;-77
2023/07/29 05:37:59;;;;;;;12.63;4.68;;;17.40;93.40;;;;;;5096702;28;20115;-78
2023/07/29 05:40:25;;;;;;;9.98;3.90;;;17.40;93.30;;;;;;5101940;28;20050;-77
2023/07/29 05:42:51;;;;;;;9.35;4.45;;;17.40;93.50;;;;;;5084822;28;20063;-77
2023/07/29 05:45:16;;;;;;;10.38;4.45;;;17.40;93.50;;;;;;5080714;28;20055;-77
2023/07/29 05:47:42;;;;;;;8.98;4.70;;;17.50;93.60;;;;;;5112967;28;20036;-77
2023/07/29 05:50:09;;;;;;;9.02;4.05;;;17.40;93.70;;;;;;5114878;28;20028;-77
2023/07/29 05:52:34;;;;;;;14.40;5.05;;;17.50;93.50;;;;;;5108613;28;20031;-77
2023/07/29 05:55:00;;;;;;;10.18;5.53;;;17.60;93.40;;;;;;5091390;28;20063;-78
2023/07/29 05:57:26;;;;;;;9.93;4.60;;;17.50;93.50;;;;;;5104267;28;20126;-77
2023/07/29 05:59:52;;;;;;;9.75;3.97;;;17.60;93.60;;;;;;5099310;28;20067;-78
2023/07/29 06:02:18;;;;;;;11.57;4.15;;;17.70;93.40;;;;;;5097154;28;20043;-77
2023/07/29 06:04:43;;;;;;;13.20;4.22;;;17.80;93.40;;;;;;5083880;28;20039;-77
2023/07/29 06:07:09;;;;;;;11.77;4.13;;;17.90;93.20;;;;;;5090908;28;20453;-77
2023/07/29 06:09:35;;;;;;;9.00;4.07;;;18.00;93.00;;;;;;5114129;28;20055;-77
2023/07/29 06:12:00;;;;;;;12.85;4.28;;;18.00;92.90;;;;;;5116617;28;20040;-77
2023/07/29 06:14:26;;;;;;;10.23;4.10;;;18.10;92.80;;;;;;5103202;28;20065;-77
2023/07/29 06:16:52;;;;;;;8.52;4.10;;;18.10;92.60;;;;;;5067339;28;20050;-78
2023/07/29 06:19:19;;;;;;;10.88;4.65;;;18.20;92.50;;;;;;5101863;28;20046;-77
2023/07/29 06:21:45;;;;;;;11.48;4.28;;;18.20;92.40;;;;;;5108500;28;20086;-77
2023/07/29 06:24:11;;;;;;;10.48;4.22;;;18.30;92.20;;;;;;5089564;28;20040;-77
2023/07/29 06:26:37;;;;;;;10.20;3.88;;;18.50;92.00;;;;;;5086393;28;20047;-77
2023/07/29 06:29:02;;;;;;;12.98;4.35;;;18.60;91.90;;;;;;5068443;28;20062;-77
2023/07/29 06:31:29;;;;;;;9.52;4.35;;;18.70;91.70;;;;;;5083241;28;20036;-78
2023/07/29 06:33:55;;;;;;;12.20;3.95;;;18.70;91.40;;;;;;5105837;28;20433;-77
2023/07/29 06:36:20;;;;;;;11.02;4.35;;;18.90;91.40;;;;;;5110307;28;20028;-77
2023/07/29 06:38:46;;;;;;;12.35;4.18;;;18.90;91.10;;;;;;5094240;28;20027;-78
2023/07/29 06:41:12;;;;;;;11.38;4.55;;;19.00;90.90;;;;;;5106284;28;20488;-78
2023/07/29 06:43:38;;;;;;;9.98;4.07;;;19.00;90.40;;;;;;5079295;28;20046;-77
2023/07/29 06:46:03;;;;;;;10.95;4.75;;;19.00;90.50;;;;;;5062707;28;20032;-77
2023/07/29 06:48:29;;;;;;;10.93;4.55;;;19.00;90.10;;;;;;5078758;28;20040;-77
2023/07/29 06:50:55;;;;;;;8.85;4.40;;;19.00;89.90;;;;;;5095335;28;20108;-77
2023/07/29 06:53:21;;;;;;;12.18;4.47;;;18.90;90.10;;;;;;5080958;28;20036;-78
2023/07/29 06:55:47;;;;;;;7.20;3.83;;;18.90;89.80;;;;;;5077812;28;20109;-78
2023/07/29 06:58:13;;;;;;;7.57;4.07;;;18.90;89.60;;;;;;5076105;28;20089;-77
2023/07/29 07:00:38;;;;;;;13.10;5.43;;;18.90;90.10;;;;;;5092974;28;20040;-76
2023/07/29 07:03:04;;;;;;;14.52;5.30;;;18.80;89.70;;;;;;5093054;28;20039;-77
2023/07/29 07:05:30;;;;;;;12.20;3.95;;;18.80;90.00;;;;;;5092917;28;20097;-77
2023/07/29 07:07:55;;;;;;;11.82;4.90;;;18.80;90.10;;;;;;5076108;28;20040;-77
2023/07/29 07:10:21;;;;;;;12.05;4.32;;;18.80;89.90;;;;;;5075909;28;20036;-77
2023/07/29 07:12:47;;;;;;;8.82;3.53;;;18.90;89.70;;;;;;5092537;28;20408;-77
2023/07/29 07:15:13;;;;;;;9.15;3.55;;;19.00;89.70;;;;;;5076065;28;20075;-77
2023/07/29 07:17:39;;;;;;;10.18;4.63;;;19.10;89.60;;;;;;5092823;28;20143;-77
2023/07/29 07:20:05;;;;;;;10.73;4.45;;;19.10;89.40;;;;;;5076059;28;20044;-78
2023/07/29 07:22:31;;;;;;;6.85;3.35;;;19.20;89.00;;;;;;5092466;28;20044;-78
2023/07/29 07:24:57;;;;;;;9.35;3.80;;;19.40;88.80;;;;;;5042809;28;20075;-78
2023/07/29 07:27:23;;;;;;;9.82;3.80;;;19.40;88.60;;;;;;5092470;28;20123;-78
2023/07/29 07:29:48;;;;;;;9.15;3.25;;;19.50;88.60;;;;;;5075540;28;20042;-78
2023/07/29 07:32:14;;;;;;;9.05;3.33;;;19.60;87.60;;;;;;5075185;28;20051;-78
2023/07/29 07:34:40;;;;;;;7.93;3.35;;;19.60;87.40;;;;;;5092193;28;20036;-78
2023/07/29 07:37:06;;;;;;;9.85;3.20;;;19.60;87.40;;;;;;5095779;28;20059;-78
2023/07/29 07:39:32;;;;;;;9.60;3.85;;;19.60;87.10;;;;;;5080402;28;20480;-78
2023/07/29 07:41:58;;;;;;;7.78;3.25;;;19.50;87.30;;;;;;5094885;28;20050;-78
2023/07/29 07:44:26;;;;;;;5.40;2.50;;;19.50;87.60;;;;;;5094279;28;20040;-78
2023/07/29 07:46:53;;;;;;;7.63;3.40;;;19.50;88.00;;;;;;5077375;28;20036;-78
2023/07/29 07:49:19;;;;;;;5.63;2.58;;;19.60;87.90;;;;;;5075327;28;20480;-77
2023/07/29 07:51:45;;;;;;;7.75;2.70;;;19.70;87.50;;;;;;5092448;28;20054;-78
2023/07/29 07:54:10;;;;;;;7.97;3.90;;;19.60;87.40;;;;;;5075419;28;20500;-78
2023/07/29 07:56:36;;;;;;;9.73;3.30;;;19.60;86.70;;;;;;5075132;28;20515;-78
2023/07/29 07:59:02;;;;;;;6.63;3.10;;;19.60;86.40;;;;;;5075468;28;20127;-78
2023/07/29 08:01:27;;;;;;;6.78;3.13;;;19.60;86.60;;;;;;5075392;28;20423;-78
2023/07/29 08:03:53;;;;;;;11.32;3.30;;;19.60;86.80;;;;;;5075148;28;20036;-78
2023/07/29 08:06:19;;;;;;;8.57;3.63;;;19.60;86.90;;;;;;5058792;28;20036;-78
2023/07/29 08:08:44;;;;;;;8.85;3.50;;;19.60;87.00;;;;;;5075323;28;20419;-77
2023/07/29 08:11:10;;;;;;;6.15;3.25;;;19.60;87.20;;;;;;5075401;28;20044;-78
2023/07/29 08:13:36;;;;;;;9.25;3.55;;;19.70;87.10;;;;;;5074991;28;20074;-77
2023/07/29 08:16:02;;;;;;;7.13;2.97;;;19.70;87.00;;;;;;5075742;28;20048;-77
2023/07/29 08:18:28;;;;;;;8.10;2.80;;;19.90;86.90;;;;;;5094146;28;20431;-78
2023/07/29 08:20:55;;;;;;;8.02;2.80;;;19.90;86.10;;;;;;5077663;28;20072;-78
2023/07/29 08:23:21;;;;;;;6.78;2.63;;;19.80;85.50;;;;;;5093343;28;20050;-78
2023/07/29 08:25:56;;;;;;;8.30;2.40;;;19.80;86.00;;;;;;5075824;28;20036;-77
2023/07/29 08:28:24;;;;;;;5.60;2.55;;;19.70;85.90;;;;;;5075485;28;20075;-78
2023/07/29 08:30:50;;;;;;;9.88;3.47;;;19.80;85.20;;;;;;5058545;28;20083;-78
2023/07/29 08:33:16;;;;;;;4.97;2.17;;;19.90;85.40;;;;;;5058192;28;20219;-78
2023/07/29 08:35:42;;;;;;;5.82;2.90;;;20.00;85.70;;;;;;5058262;28;20446;-77
2023/07/29 08:38:07;;;;;;;8.45;2.80;;;20.00;84.40;;;;;;5074919;28;20115;-77
2023/07/29 08:40:36;;;;;;;7.15;2.60;;;20.00;84.40;;;;;;5075131;28;20047;-78
2023/07/29 08:43:05;;;;;;;6.78;2.92;;;19.90;85.00;;;;;;5091567;28;20098;-77
2023/07/29 08:45:36;;;;;;;8.60;2.78;;;19.90;85.10;;;;;;5075002;28;20098;-78
2023/07/29 08:48:09;;;;;;;4.88;2.40;;;20.10;85.20;;;;;;5091600;28;20073;-76
2023/07/29 08:50:36;;;;;;;7.05;2.63;;;20.20;85.40;;;;;;5075236;28;20395;-77
2023/07/29 08:53:05;;;;;;;8.02;2.45;;;20.30;84.80;;;;;;5059113;28;20119;-77
2023/07/29 08:55:33;;;;;;;7.30;2.22;;;20.30;84.70;;;;;;5059269;28;20032;-77
2023/07/29 08:57:59;;;;;;;3.85;2.03;;;20.40;84.60;;;;;;5075325;28;20457;-76
2023/07/29 09:00:26;;;;;;;8.40;2.42;;;20.40;83.70;;;;;;5044276;28;20124;-76
2023/07/29 09:02:53;;;;;;;5.95;2.17;;;20.40;83.80;;;;;;5110156;28;20081;-76
2023/07/29 09:05:20;;;;;;;8.30;2.25;;;20.40;83.20;;;;;;5120682;28;20074;-77
2023/07/29 09:07:47;;;;;;;8.13;2.42;;;20.40;82.80;;;;;;5102783;28;20047;-77
2023/07/29 09:10:14;;;;;;;5.85;2.30;;;20.40;82.90;;;;;;5116775;28;20036;-77
2023/07/29 09:12:40;;;;;;;9.00;2.58;;;20.40;83.30;;;;;;5117244;28;20047;-76
2023/07/29 09:15:06;;;;;;;5.95;2.38;;;20.50;83.00;;;;;;5101499;28;20496;-77
2023/07/29 09:17:35;;;;;;;5.82;2.80;;;20.50;82.80;;;;;;5099446;28;20089;-76
2023/07/29 09:20:01;;;;;;;7.32;2.38;;;20.50;82.90;;;;;;5107803;28;20119;-77
2023/07/29 09:22:27;;;;;;;7.43;2.40;;;20.50;83.20;;;;;;5106593;28;20047;-77
2023/07/29 09:24:56;;;;;;;9.55;2.60;;;20.60;83.60;;;;;;5090513;28;20032;-76
2023/07/29 09:27:27;;;;;;;4.68;2.40;;;20.70;83.30;;;;;;5110889;28;20031;-77
2023/07/29 09:29:53;;;;;;;6.85;3.20;;;20.70;83.50;;;;;;5090418;28;20040;-77
2023/07/29 09:32:25;;;;;;;7.35;2.42;;;20.60;84.00;;;;;;5109956;28;20059;-77
2023/07/29 09:34:51;;;;;;;4.95;3.35;;;20.40;84.70;;;;;;5106256;28;20036;-77
2023/07/29 09:37:23;;;;;;;6.85;3.53;;;20.40;84.90;;;;;;5108609;28;20024;-76
2023/07/29 09:39:50;;;;;;;6.13;3.13;;;20.40;85.60;;;;;;5086890;28;20054;-76
2023/07/29 09:42:20;;;;;;;6.63;2.78;;;20.40;86.20;;;;;;5095751;28;20058;-77
2023/07/29 09:44:46;;;;;;;6.10;3.00;;;20.30;86.40;;;;;;5091658;28;20040;-77
2023/07/29 09:47:21;;;;;;;5.50;3.00;;;20.30;86.70;;;;;;5087974;28;20048;-77
2023/07/29 09:49:47;;;;;;;7.55;2.50;;;20.40;86.60;;;;;;5088042;28;20044;-77
2023/07/29 09:52:18;;;;;;;5.88;2.97;;;20.40;86.40;;;;;;5108076;28;20039;-77
2023/07/29 09:54:44;;;;;;;4.20;2.22;;;20.50;85.70;;;;;;5104217;28;20024;-78
2023/07/29 09:57:18;;;;;;;9.15;3.55;;;20.60;85.70;;;;;;5107176;28;20123;-77
2023/07/29 09:59:53;;;;;;;;;;;20.70;84.20;;;;;;5108271;28;20094;-77
2023/07/29 10:02:20;;;;;;;4.72;2.13;;;20.70;82.70;;;;;;5104414;28;19919;-77
2023/07/29 10:04:46;;;;;;;3.95;1.90;;;20.80;81.90;;;;;;5072035;28;20040;-77
2023/07/29 10:07:12;;;;;;;6.30;2.38;;;21.00;82.70;;;;;;5104304;28;20055;-77
2023/07/29 10:09:39;;;;;;;3.17;1.98;;;21.20;81.90;;;;;;5091411;28;20079;-77
2023/07/29 10:12:11;;;;;;;6.13;2.13;;;21.30;81.00;;;;;;5075312;28;20048;-77
2023/07/29 10:14:38;;;;;;;4.18;1.63;;;21.50;79.80;;;;;;5111026;28;20067;-76
2023/07/29 10:17:05;;;;;;;3.72;1.80;;;21.60;79.80;;;;;;5107231;28;20044;-77
2023/07/29 10:19:31;;;;;;;3.45;2.05;;;21.50;79.50;;;;;;5090800;28;20110;-76
2023/07/29 10:22:02;;;;;;;3.42;2.03;;;21.50;79.30;;;;;;5090923;28;20074;-76
2023/07/29 10:24:33;;;;;;;3.75;2.00;;;21.40;79.50;;;;;;5107299;28;20040;-77
2023/07/29 10:27:00;;;;;;;2.92;2.13;;;21.30;79.80;;;;;;5090075;28;20044;-77
2023/07/29 10:29:37;;;;;;;4.20;1.90;;;21.20;80.10;;;;;;5107287;28;20040;-77
2023/07/29 10:32:05;;;;;;;1.60;1.30;;;21.30;79.80;;;;;;5107738;28;20083;-77
2023/07/29 10:34:32;;;;;;;5.55;1.95;;;21.40;79.40;;;;;;5107023;28;20093;-76
2023/07/29 10:36:59;;;;;;;2.92;1.40;;;21.40;78.50;;;;;;5106838;28;20035;-77
2023/07/29 10:39:25;;;;;;;4.82;2.30;;;21.50;77.30;;;;;;5089417;28;20507;-77
2023/07/29 10:41:59;;;;;;;3.03;1.98;;;21.50;77.40;;;;;;5090611;28;20050;-77
2023/07/29 10:44:49;;;;;;;5.97;1.70;;;21.60;77.20;;;;;;5091012;28;20079;-77
2023/07/29 10:47:19;;;;;;;5.22;1.90;;;21.50;78.10;;;;;;5091781;28;20044;-77
2023/07/29 10:49:46;;;;;;;4.45;1.85;;;21.50;77.60;;;;;;5090505;28;20513;-77
2023/07/29 10:52:16;;;;;;;3.55;2.13;;;21.30;77.70;;;;;;5107704;28;20051;-77
2023/07/29 10:54:47;;;;;;;4.68;2.55;;;21.10;78.50;;;;;;5107604;28;20540;-77
2023/07/29 10:57:29;;;;;;;7.20;2.72;;;20.90;79.90;;;;;;5088935;28;20039;-77
2023/07/29 10:59:56;;;;;;;6.68;2.60;;;20.90;81.30;;;;;;5100211;28;20112;-76
2023/07/29 11:02:32;;;;;;;6.95;2.83;;;20.70;82.90;;;;;;5095681;28;20143;-77
2023/07/29 11:04:59;;;;;;;6.22;2.13;;;20.50;84.10;;;;;;5076637;28;20035;-78
2023/07/29 11:07:26;;;;;;;2.92;1.75;;;20.70;83.10;;;;;;5076296;28;20047;-77
2023/07/29 11:09:56;;;;;;;4.32;1.77;;;20.70;82.30;;;;;;5093079;28;20051;-78
2023/07/29 11:12:45;;;;;;;8.13;3.13;;;20.50;80.90;;;;;;5080650;28;20039;-78
2023/07/29 11:15:10;;;;;;;9.13;3.65;;;20.00;84.20;;;;;;5078516;28;20055;-76
2023/07/29 11:17:39;;;;;;;5.82;3.08;;;19.50;85.90;;;;;;5076026;28;20044;-76
2023/07/29 11:20:07;;;;;;;7.00;3.88;;;19.30;87.50;;;;;;5075872;28;20036;-76
2023/07/29 11:22:33;;;;;;;5.97;3.15;;;19.10;88.70;;;;;;5092579;28;20089;-76
2023/07/29 11:24:59;;;;;;;4.88;2.58;;;19.20;88.60;;;;;;5093709;28;20040;-76
2023/07/29 11:27:25;;;;;;;3.58;2.63;;;19.20;88.40;;;;;;5075907;28;20538;-76
2023/07/29 11:29:50;;;;;;;4.68;2.50;;;19.20;88.40;;;;;;5092908;28;20093;-76
2023/07/29 11:32:16;;;;;;;3.25;2.22;;;19.30;87.90;;;;;;5092726;28;20130;-76
2023/07/29 11:34:42;;;;;;;5.40;2.78;;;19.50;88.20;;;;;;5092391;28;20036;-76
2023/07/29 11:37:11;;;;;;;5.60;2.60;;;19.60;88.20;;;;;;5075618;28;20106;-76
2023/07/29 11:39:45;;;;;;;5.72;2.22;;;19.90;87.70;;;;;;5092217;28;20043;-76
2023/07/29 11:42:12;;;;;;;2.60;1.60;;;20.20;87.00;;;;;;5092258;28;20507;-76
2023/07/29 11:44:38;;;;;;;3.17;1.35;;;20.30;85.30;;;;;;5092482;28;20079;-76
2023/07/29 11:47:11;;;;;;;2.55;1.60;;;20.20;84.00;;;;;;5076102;28;20093;-76
2023/07/29 11:49:39;;;;;;;5.93;2.47;;;20.20;82.70;;;;;;5058824;28;20127;-76
2023/07/29 11:52:09;;;;;;;4.15;2.00;;;20.00;83.40;;;;;;5092312;28;20044;-76
2023/07/29 11:54:37;;;;;;;3.65;1.90;;;19.90;82.90;;;;;;5075196;28;20067;-76
2023/07/29 11:57:08;;;;;;;4.25;2.08;;;19.90;83.10;;;;;;5075507;28;20036;-76
2023/07/29 11:59:35;;;;;;;4.07;1.90;;;19.90;83.30;;;;;;5092055;28;20036;-76
2023/07/29 12:02:05;;;;;;;8.20;2.80;;;20.00;83.80;;;;;;5092114;28;20040;-76
2023/07/29 12:04:31;;;;;;;6.95;2.60;;;20.00;84.90;;;;;;5075632;28;20543;-76
2023/07/29 12:06:58;;;;;;;3.08;1.88;;;20.20;83.70;;;;;;5075447;28;20377;-75
2023/07/29 12:09:24;;;;;;;4.72;1.90;;;20.30;83.20;;;;;;5058570;28;20044;-76
2023/07/29 12:11:52;;;;;;;3.10;1.65;;;20.30;82.80;;;;;;5075045;28;20157;-76
2023/07/29 12:14:17;;;;;;;6.63;2.17;;;20.30;83.20;;;;;;5074810;28;20134;-76
2023/07/29 12:16:44;;;;;;;7.68;2.30;;;20.20;83.30;;;;;;5058315;28;20544;-76
2023/07/29 12:19:13;;;;;;;5.40;2.50;;;20.20;82.60;;;;;;5091760;28;20044;-76
2023/07/29 12:21:41;;;;;;;6.43;2.40;;;20.30;82.10;;;;;;5092113;28;20131;-76
2023/07/29 12:24:07;;;;;;;5.47;1.98;;;20.40;82.00;;;;;;5075167;28;20037;-76
2023/07/29 12:26:33;;;;;;;3.95;1.83;;;20.40;81.30;;;;;;5058645;28;20426;-76
2023/07/29 12:28:59;;;;;;;4.68;1.90;;;20.50;80.60;;;;;;5058299;28;20051;-76
2023/07/29 12:31:32;;;;;;;5.63;2.10;;;20.60;79.70;;;;;;5074864;28;20054;-76
2023/07/29 12:33:58;;;;;;;4.50;2.50;;;20.60;79.40;;;;;;5091633;28;20496;-76
2023/07/29 12:36:40;;;;;;;6.45;3.08;;;20.60;79.20;;;;;;5078424;28;20127;-76
2023/07/29 12:39:06;;;;;;;7.63;2.92;;;20.70;78.60;;;;;;5079136;28;20365;-76
2023/07/29 12:41:31;;;;;;;8.55;4.03;;;20.80;77.40;;;;;;5062145;28;20039;-76
2023/07/29 12:43:57;;;;;;;8.13;3.15;;;20.80;78.00;;;;;;5062323;28;20050;-76
2023/07/29 12:46:29;;;;;;;8.57;4.55;;;20.90;77.80;;;;;;5078677;28;20491;-75